x

Western Hawaii - 205 Nm Sw Of Honolulu, Hi (51003) Wave Buoy

11:50pm - Mon 26th Jan 2015 All times are HST. -10 hours from GMT.

  • Sig Wave height 7.5ft
  • Peak Period 11s
  • Average Period 6s
  • Wind
    18mph, 20mph gusts
  • Sea Temp 78°f
  • Air Temp 76°f
  • Sea Pressure 1014.1mb
  • Western  Hawaii - 205 Nm Sw Of Honolulu, Hi
  • Western  Hawaii - 205 Nm Sw Of Honolulu, Hi

More Historic Weather Station data

Upgrade to MSW Pro to gain access to the past 30 days of data for over 8000 Wavebouys and Weather Stations around the globe.

Join Pro

Comparision Forecast

View Surf forecast
   
Mon 01/26 11:50pm 7.5ft 11s 6s 18 20 mph 1014.1mb 78f 76f
10:50pm 8ft 11s 7s 18 20 mph 1014.1mb 78f 76f
9:50pm 7ft 8s 6s 18 20 mph 1014.1mb 78f 76f
8:50pm 7ft 12s 6s 16 20 mph 1014.1mb 78f 76f
7:50pm 7.5ft 12s 6s 18 20 mph 1013.5mb 78f 76f
6:50pm 8.5ft 11s 7s 18 20 mph 1012.7mb 78f 76f
5:50pm 7.5ft 12s 6s 18 20 mph 1012mb 78f 76f
4:50pm 8ft 12s 7s 18 22 mph 1011.5mb 78f 76f
3:50pm 8.5ft 12s 7s 18 22 mph 1011.6mb 78f 75f
2:50pm 8ft 13s 7s 20 25 mph 1011.7mb 78f 75f
1:50pm 10ft 12s 7s 18 22 mph 1012.2mb 78f 76f
12:50pm 9ft 13s 7s 20 25 mph 1013.2mb 78f 76f
11:50am 8.5ft 11s 7s 20 22 mph 1013.8mb 78f 76f
10:50am 9ft 12s 7s 20 22 mph 1014.1mb 78f 76f
9:50am 9ft 12s 7s 20 25 mph 1013.9mb 78f 76f
8:50am 10ft 12s 7s 20 25 mph 1013.5mb 78f 75f
7:50am 10ft 13s 7s 20 25 mph 1012.8mb 78f 76f
6:50am 10ft 12s 7s 20 25 mph 1012.4mb 78f 76f
5:50am 10ft 13s 7s 20 25 mph 1011.6mb 78f 76f
4:50am 9.5ft 13s 7s 20 25 mph 1011.6mb 78f 76f
3:50am 10ft 14s 7s 20 25 mph 1011.7mb 78f 76f
2:50am 9.5ft 13s 7s 22 25 mph 1012.2mb 78f 76f
1:50am 9ft 11s 7s 20 25 mph 1013mb 78f 76f
12:50am 10ft 14s 7s 20 25 mph 1013.7mb 78f 74f
Sun 01/25 11:50pm 9.5ft 14s 7s 20 22 mph 1014.2mb 78f 76f
10:50pm 9ft 14s 7s 18 22 mph 1014.6mb 78f 76f
9:50pm 9.5ft 13s 7s 18 22 mph 1014.9mb 78f 74f
8:50pm 10ft 14s 8s 18 22 mph 1015.1mb 78f 74f
7:50pm 10.5ft 13s 8s 13 20 mph 1015.1mb 78f 73f
6:50pm 11ft 14s 8s 13 18 mph 1014.7mb 78f 74f
5:50pm 10.5ft 14s 8s 18 22 mph 1014.3mb 78f 74f
4:50pm 9.5ft 13s 8s 16 18 mph 1014mb 78f 76f
3:50pm 11ft 13s 9s 16 18 mph 1013.8mb 78f 76f
2:50pm 10ft 15s 8s 16 18 mph 1013.8mb 78f 76f
1:50pm 10ft 14s 8s 16 20 mph 1014.4mb 78f 76f
12:50pm 12ft 14s 9s 16 20 mph 1015.4mb 78f 76f
11:50am 12.5ft 14s 9s 18 22 mph 1016.4mb 78f 75f
10:50am 12.5ft 14s 8s 18 22 mph 1016.9mb 78f 75f
9:50am 13ft 14s 9s 18 20 mph 1017mb 78f 75f
8:50am 12ft 13s 8s 18 22 mph 1016.7mb 78f 75f
7:50am 12ft 14s 9s 18 20 mph 1016.3mb 78f 75f
6:50am 13ft 14s 9s 18 22 mph 1015.8mb 78f 75f
5:50am 12ft 15s 8s 18 22 mph 1015.5mb 78f 75f
4:50am 11ft 14s 8s 18 22 mph 1015.4mb 78f 75f
3:50am 12.5ft 15s 8s 18 22 mph 1015.1mb 78f 75f
2:50am 11.5ft 13s 8s 20 25 mph 1015.3mb 78f 75f
1:50am 12.5ft 15s 8s 20 25 mph 1015.8mb 78f 75f
12:50am 12ft 14s 8s 20 25 mph 1016.3mb 78f 75f
Sat 01/24 11:50pm 11.5ft 15s 8s 22 25 mph 1016.7mb 78f 75f
10:50pm 12.5ft 15s 8s 22 29 mph 1017.2mb 78f 74f
9:50pm 11.5ft 15s 8s 25 29 mph 1017.2mb 78f 74f
8:50pm 11.5ft 15s 8s 25 29 mph 1017.1mb 78f 73f
7:50pm 12.5ft 14s 9s 22 27 mph 1016.6mb 78f 74f
6:50pm 12ft 15s 8s 20 25 mph 1016mb 78f 75f
5:50pm 12ft 15s 9s 20 22 mph 1015.8mb 78f 74f
4:50pm 10.5ft 15s 8s 18 22 mph 1015.2mb 78f 75f
3:50pm 10ft 15s 8s 20 22 mph 1014.7mb 78f 75f
2:50pm 10.5ft 13s 8s 18 22 mph 1014.8mb 78f 75f
1:50pm 12ft 15s 9s 20 22 mph 1015.3mb 78f 75f
12:50pm 11ft 15s 8s 18 22 mph 1016.3mb 78f 76f
11:50am 14ft 15s 10s 18 22 mph 1017.1mb 78f 76f
10:50am 11ft 15s 9s 18 20 mph 1017.7mb 78f 76f
9:50am 10.5ft 16s 9s 18 22 mph 1017.6mb 78f 75f
8:50am 13.5ft 16s 10s 18 20 mph 1017mb 78f 75f
7:50am 12.5ft 15s 10s 16 20 mph 1016.6mb 78f 75f
6:50am 13ft 14s 10s 18 20 mph 1016mb 78f 74f
5:50am 13ft 15s 11s 13 18 mph 1015.7mb 78f 75f
4:50am 12ft 16s 10s 13 18 mph 1015.3mb 78f 75f
3:50am 13.5ft 16s 11s 13 16 mph 1015.2mb 78f 75f
2:50am 14.5ft 15s 12s 13 16 mph 1015.5mb 78f 75f
1:50am 11.5ft 15s 11s 13 18 mph 1016.1mb 78f 76f
12:50am 10.5ft 12s 11s 9 16 mph 1016.4mb 78f 77f
Fri 01/23 11:50pm 11ft 14s 11s 7 11 mph 1016.5mb 78f 77f
10:50pm 11ft 15s 11s 7 11 mph 1016.7mb 78f 77f
9:50pm 11ft 14s 11s 4 7 mph 1016.4mb 79f 77f
8:50pm 10ft 14s 11s 4 7 mph 1016.1mb 79f 77f
7:50pm 9ft 14s 10s 4 7 mph 1015.9mb 79f 77f
6:50pm 9ft 13s 10s 2 4 mph 1015.2mb 79f 77f
5:50pm 10ft 14s 10s 4 7 mph 1014.8mb 79f 77f
4:50pm 9ft 14s 10s 4 7 mph 1014.4mb 79f 77f
3:50pm 8.5ft 15s 10s 4 7 mph 1014.2mb 79f 77f
2:50pm 8.5ft 15s 10s 9 13 mph 1013.8mb 79f 77f
1:50pm 11ft 15s 11s 9 11 mph 1014.2mb 79f 76f
12:50pm 9ft 14s 11s 11 13 mph 1014.9mb 79f 76f
11:50am 8ft 14s 10s 11 13 mph 1015.5mb 79f 76f